createdAt,value
2022-10-19T00:01:01.830Z,101099.19
2022-10-19T00:03:28.710Z,101164.28
2022-10-19T00:05:55.395Z,101160.31
2022-10-19T00:08:22.256Z,101115.56
2022-10-19T00:10:49.118Z,101155.06
2022-10-19T00:13:17.649Z,101166.16
2022-10-19T00:15:44.517Z,101139.66
2022-10-19T00:18:11.307Z,101095.94
2022-10-19T00:20:38.092Z,101085.28
2022-10-19T00:23:04.833Z,101164.25
2022-10-19T00:25:31.702Z,101113.59
2022-10-19T00:27:58.490Z,101100.28
2022-10-19T00:30:26.708Z,101156.88
2022-10-19T00:32:53.496Z,101124.38
2022-10-19T00:35:20.300Z,101085.00
2022-10-19T00:37:47.242Z,101099.34
2022-10-19T00:40:14.052Z,101132.63
2022-10-19T00:42:40.732Z,101109.38
2022-10-19T00:45:13.961Z,101130.53
2022-10-19T00:47:44.496Z,101133.06
2022-10-19T00:50:14.881Z,101115.88
2022-10-19T00:52:42.309Z,101115.88
2022-10-19T00:55:10.256Z,101136.22
2022-10-19T00:57:37.325Z,101148.44
2022-10-19T01:00:07.381Z,101157.72
2022-10-19T01:02:34.950Z,101164.78
2022-10-19T01:05:04.214Z,101123.84
2022-10-19T01:07:31.156Z,101107.09
2022-10-19T01:09:59.235Z,101151.81
2022-10-19T01:12:46.935Z,101170.22
2022-10-19T01:15:22.893Z,101111.53
2022-10-19T01:18:00.911Z,101152.09
2022-10-19T01:21:14.190Z,101133.69
2022-10-19T01:24:28.471Z,101078.25
2022-10-19T01:27:32.710Z,101146.84
2022-10-19T01:30:08.556Z,101065.41
2022-10-19T01:32:52.627Z,101101.75
2022-10-19T01:35:26.696Z,101119.16
2022-10-19T01:38:03.887Z,101084.81
2022-10-19T01:40:39.034Z,101132.16
2022-10-19T01:43:12.690Z,101075.41
2022-10-19T01:45:45.218Z,101121.41
2022-10-19T01:48:15.832Z,101140.53
2022-10-19T01:50:47.615Z,101113.84
2022-10-19T01:53:17.467Z,101098.41
2022-10-19T01:55:47.734Z,101130.13
2022-10-19T01:58:27.626Z,101135.94
2022-10-19T02:01:08.677Z,101127.41
2022-10-19T02:03:43.400Z,101166.63
2022-10-19T02:06:11.773Z,101120.09
2022-10-19T02:08:43.939Z,101113.19
2022-10-19T02:11:10.783Z,101127.81
2022-10-19T02:13:39.830Z,101166.31
2022-10-19T02:16:16.306Z,101103.59
2022-10-19T02:18:46.991Z,101113.84
2022-10-19T02:21:13.916Z,101112.66
2022-10-19T02:23:40.840Z,101103.00
2022-10-19T02:26:08.657Z,101158.25
2022-10-19T02:28:35.945Z,101124.13
2022-10-19T02:31:03.059Z,101117.19
2022-10-19T02:33:32.024Z,101148.38
2022-10-19T02:36:00.190Z,101137.78
2022-10-19T02:38:27.601Z,101139.63
2022-10-19T02:41:02.895Z,101148.00
2022-10-19T02:43:33.807Z,101129.22
2022-10-19T02:46:04.403Z,101116.97
2022-10-19T02:48:34.530Z,101103.38
2022-10-19T02:51:01.223Z,101137.19
2022-10-19T02:53:28.662Z,101094.31
2022-10-19T02:55:55.390Z,101090.84
2022-10-19T02:58:22.201Z,101071.91
2022-10-19T03:00:48.982Z,101142.63
2022-10-19T03:03:15.824Z,101145.19
2022-10-19T03:05:43.984Z,101150.81
2022-10-19T03:08:10.700Z,101130.13
2022-10-19T03:10:37.420Z,101107.50
2022-10-19T03:13:04.101Z,101103.50
2022-10-19T03:15:30.858Z,101084.53
2022-10-19T03:18:00.607Z,101126.19
2022-10-19T03:20:27.404Z,101085.88
2022-10-19T03:22:59.933Z,101152.00
2022-10-19T03:25:26.797Z,101128.53
2022-10-19T03:28:00.206Z,101157.31
2022-10-19T03:30:26.943Z,101140.97
2022-10-19T03:32:53.653Z,101107.63
2022-10-19T03:35:20.534Z,101123.63
2022-10-19T03:37:50.361Z,101100.66
2022-10-19T03:40:18.513Z,101123.50
2022-10-19T03:42:45.243Z,101145.97
2022-10-19T03:45:12.291Z,101131.31
2022-10-19T03:47:39.733Z,101146.84
2022-10-19T03:50:06.977Z,101176.84
2022-10-19T03:52:33.734Z,101086.75
2022-10-19T03:55:00.495Z,101161.41
2022-10-19T03:57:28.642Z,101186.28
2022-10-19T04:00:00.742Z,101147.06
2022-10-19T04:02:27.472Z,101147.19
2022-10-19T04:04:56.102Z,101096.34
2022-10-19T04:07:30.550Z,101157.38
2022-10-19T04:09:57.511Z,101147.41
2022-10-19T04:12:24.254Z,101096.06
2022-10-19T04:14:56.969Z,101144.13
2022-10-19T04:17:25.279Z,101178.78
2022-10-19T04:19:51.981Z,101137.91
2022-10-19T04:22:18.716Z,101146.03
2022-10-19T04:24:45.418Z,101169.25
2022-10-19T04:27:18.787Z,101170.84
2022-10-19T04:29:46.774Z,101196.41
2022-10-19T04:32:25.381Z,101134.47
2022-10-19T04:34:52.084Z,101168.50
2022-10-19T04:37:32.085Z,101163.38
2022-10-19T04:40:47.222Z,101138.69
2022-10-19T04:43:27.895Z,101173.63
2022-10-19T04:46:00.697Z,101172.00
2022-10-19T04:48:42.361Z,101155.25
2022-10-19T04:51:17.071Z,101165.19
2022-10-19T04:54:00.310Z,101195.88
2022-10-19T04:56:39.274Z,101162.66
2022-10-19T05:02:02.512Z,101199.03
2022-10-19T05:04:45.193Z,101186.38
2022-10-19T05:07:23.166Z,101159.38
2022-10-19T05:09:57.355Z,101145.91
2022-10-19T05:12:56.457Z,101164.13
2022-10-19T05:15:49.779Z,101213.03
2022-10-19T05:18:42.663Z,101176.25
2022-10-19T05:21:40.074Z,101178.16
2022-10-19T05:24:21.066Z,101125.25
2022-10-19T05:27:00.796Z,101168.28
2022-10-19T05:29:33.495Z,101190.34
2022-10-19T05:32:09.292Z,101181.91
2022-10-19T05:34:53.782Z,101206.34
2022-10-19T05:37:24.920Z,101210.66
2022-10-19T05:39:54.219Z,101238.34
2022-10-19T05:42:24.470Z,101152.78
2022-10-19T05:45:00.806Z,101140.66
2022-10-19T05:50:42.447Z,101174.69
2022-10-19T05:53:17.768Z,101181.53
2022-10-19T05:55:57.389Z,101164.94
2022-10-19T05:58:42.104Z,101176.78
2022-10-19T06:01:17.973Z,101137.50
2022-10-19T06:04:03.600Z,101239.69
2022-10-19T06:06:40.669Z,101174.69
2022-10-19T06:09:17.906Z,101159.84
2022-10-19T06:12:03.441Z,101195.94
2022-10-19T06:14:41.766Z,101196.75
2022-10-19T06:20:27.500Z,101189.72
2022-10-19T06:23:05.112Z,101257.69
2022-10-19T06:26:07.259Z,101262.31
2022-10-19T06:28:45.339Z,101267.13
2022-10-19T06:31:24.917Z,101237.19
2022-10-19T06:34:09.417Z,101191.22
2022-10-19T06:36:45.551Z,101202.13
2022-10-19T06:39:42.701Z,101274.03
2022-10-19T06:45:38.005Z,101288.47
2022-10-19T06:48:30.048Z,101198.72
2022-10-19T06:51:07.876Z,101245.31
2022-10-19T06:53:47.066Z,101256.66
2022-10-19T06:56:38.134Z,101216.81
2022-10-19T06:59:41.089Z,101231.44
2022-10-19T07:05:40.208Z,101245.00
2022-10-19T07:08:39.173Z,101222.97
2022-10-19T07:11:45.566Z,101212.69
2022-10-19T07:14:34.905Z,101270.22
2022-10-19T08:14:53.176Z,101250.41
2022-10-19T08:17:29.575Z,101308.28
2022-10-19T08:20:02.320Z,101291.84
2022-10-19T08:22:39.531Z,101239.56
2022-10-19T08:25:14.368Z,101254.81
2022-10-19T08:27:53.150Z,101272.75
2022-10-19T08:30:36.029Z,101251.50
2022-10-19T08:33:07.419Z,101235.13
2022-10-19T08:35:36.711Z,101267.78
2022-10-19T08:38:04.796Z,101265.94
2022-10-19T08:40:34.881Z,101257.94
2022-10-19T08:43:18.437Z,101218.56
2022-10-19T08:46:11.481Z,101277.84
2022-10-19T08:51:39.844Z,101284.72
2022-10-19T08:54:24.589Z,101219.44
2022-10-19T08:57:04.270Z,101289.28
2022-10-19T08:59:45.623Z,101219.69
2022-10-19T09:02:18.137Z,101258.13
2022-10-19T09:05:03.350Z,101268.97
2022-10-19T09:07:40.489Z,101258.91
2022-10-19T09:10:31.443Z,101282.97
2022-10-19T09:15:59.158Z,101253.97
2022-10-19T09:18:40.772Z,101305.38
2022-10-19T09:21:19.868Z,101276.09
2022-10-19T09:24:13.872Z,101220.19
2022-10-19T09:30:11.483Z,101223.66
2022-10-19T09:32:39.520Z,101249.25
2022-10-19T09:35:36.874Z,101237.78
2022-10-19T09:38:13.002Z,101284.59
2022-10-19T09:40:42.365Z,101293.41
2022-10-19T09:49:18.513Z,101235.13
2022-10-19T09:52:31.609Z,101225.34
2022-10-19T09:55:31.022Z,101294.63
2022-10-19T09:59:58.131Z,101240.88
2022-10-19T10:02:41.176Z,101296.44
2022-10-19T10:05:32.410Z,101279.28
2022-10-19T10:08:34.338Z,101246.59
2022-10-19T10:18:59.597Z,101228.66
2022-10-19T10:45:32.527Z,101223.75
2022-10-19T10:48:10.950Z,101223.38
2022-10-19T10:51:13.489Z,101167.06
2022-10-19T11:02:11.078Z,101171.09
2022-10-19T11:11:49.557Z,101105.97
2022-10-19T11:15:02.123Z,101136.72
2022-10-19T11:18:05.828Z,101190.13
2022-10-19T11:21:13.629Z,101107.03
2022-10-19T11:24:02.067Z,101129.03
2022-10-19T11:27:09.884Z,101169.69
2022-10-19T11:30:16.520Z,101124.56
2022-10-19T11:33:19.427Z,101125.66
2022-10-19T11:36:21.882Z,101099.38
2022-10-19T11:39:00.400Z,101113.28
2022-10-19T11:41:38.042Z,101116.69
2022-10-19T11:44:35.980Z,101086.78
2022-10-19T11:47:42.918Z,101075.84
2022-10-19T11:50:32.030Z,101068.19
2022-10-19T11:53:22.606Z,101138.25
2022-10-19T11:56:17.238Z,101097.72
2022-10-19T11:58:59.612Z,101085.78
2022-10-19T12:02:01.656Z,101094.13
2022-10-19T12:04:43.223Z,101123.25
2022-10-19T12:07:34.684Z,101082.75
2022-10-19T12:10:16.418Z,101048.75
2022-10-19T12:15:49.818Z,101079.63
2022-10-19T12:18:38.900Z,101084.63
2022-10-19T12:21:19.607Z,101080.19
2022-10-19T12:26:36.863Z,101036.91
2022-10-19T12:31:57.513Z,101035.06
2022-10-19T12:34:49.142Z,101038.66
2022-10-19T12:40:44.138Z,101027.56
2022-10-19T12:43:38.130Z,101063.06
2022-10-19T12:46:36.542Z,101055.59
2022-10-19T12:52:42.708Z,101036.16
2022-10-19T12:55:31.612Z,101051.59
2022-10-19T12:58:41.546Z,101003.66
2022-10-19T13:07:33.214Z,101029.56
2022-10-19T13:10:41.616Z,101042.25
2022-10-19T13:13:58.373Z,100996.91
2022-10-19T13:34:02.473Z,101041.09
2022-10-19T13:39:57.069Z,100991.88
2022-10-19T13:43:31.537Z,100978.09
2022-10-19T14:06:33.518Z,100967.00
2022-10-19T14:09:39.356Z,100998.84
2022-10-19T14:12:15.192Z,101001.22
2022-10-19T14:15:53.859Z,101004.16
2022-10-19T14:22:20.635Z,100960.22
2022-10-19T14:25:13.716Z,101021.47
2022-10-19T14:29:04.058Z,100954.66
2022-10-19T14:49:26.043Z,101022.94
2022-10-19T14:59:23.739Z,100933.28
2022-10-19T15:02:34.292Z,100930.88
2022-10-19T15:08:50.159Z,100947.84
2022-10-19T15:11:45.808Z,100950.13
2022-10-19T15:14:29.557Z,101015.75
2022-10-19T15:17:09.032Z,100975.63
2022-10-19T15:20:06.165Z,100942.41
2022-10-19T15:23:02.641Z,100946.63
2022-10-19T15:25:41.048Z,101018.97
2022-10-19T15:28:43.898Z,101022.69
2022-10-19T15:38:19.563Z,100976.88
2022-10-19T15:41:23.590Z,101013.63
2022-10-19T15:53:52.884Z,100996.94
2022-10-19T16:02:23.154Z,101033.13
2022-10-19T16:05:30.409Z,101046.06
2022-10-19T16:08:27.473Z,101050.53
2022-10-19T16:11:09.950Z,101007.84
2022-10-19T16:17:16.297Z,101078.09
2022-10-19T16:19:56.414Z,101027.38
2022-10-19T16:23:41.892Z,101019.22
2022-10-19T16:26:30.896Z,101046.22
2022-10-19T16:29:26.738Z,101045.31
2022-10-19T16:35:33.196Z,101051.66
2022-10-19T16:38:02.903Z,101091.41
2022-10-19T16:40:29.843Z,101079.53
2022-10-19T16:42:58.628Z,101070.53
2022-10-19T16:48:26.270Z,101075.66
2022-10-19T16:54:23.368Z,101087.41
2022-10-19T17:00:20.789Z,101112.75
2022-10-19T17:03:26.512Z,101063.81
2022-10-19T17:12:42.533Z,101062.06
2022-10-19T17:15:56.443Z,101098.44
2022-10-19T17:19:38.903Z,101058.97
2022-10-19T17:29:05.681Z,101126.72
2022-10-19T17:31:39.939Z,101180.19
2022-10-19T17:41:22.585Z,101093.13
2022-10-19T17:44:29.169Z,101083.31
2022-10-19T17:47:23.592Z,101100.50
2022-10-19T17:50:21.027Z,101152.41
2022-10-19T17:53:05.107Z,101154.44
2022-10-19T17:55:39.848Z,101137.22
2022-10-19T17:58:36.419Z,101096.16
2022-10-19T18:04:25.773Z,101105.41
2022-10-19T18:06:55.346Z,101129.09
2022-10-19T18:10:00.118Z,101094.94
2022-10-19T18:12:44.720Z,101173.53
2022-10-19T18:15:17.959Z,101137.00
2022-10-19T18:17:47.914Z,101141.34
2022-10-19T18:21:09.930Z,101149.09
2022-10-19T18:23:58.820Z,101144.66
2022-10-19T18:30:06.606Z,101098.53
2022-10-19T18:33:00.634Z,101181.53
2022-10-19T18:39:01.851Z,101191.56
2022-10-19T18:41:53.183Z,101162.38
2022-10-19T18:44:34.065Z,101143.28
2022-10-19T18:47:23.579Z,101097.28
2022-10-19T18:53:09.062Z,101187.75
2022-10-19T18:56:07.906Z,101115.72
2022-10-19T18:58:57.357Z,101189.78
2022-10-19T19:01:51.997Z,101191.66
2022-10-19T19:04:31.790Z,101186.59
2022-10-19T19:07:28.215Z,101144.75
2022-10-19T19:10:24.962Z,101110.34
2022-10-19T19:13:02.839Z,101157.50
2022-10-19T19:15:52.636Z,101116.81
2022-10-19T19:21:20.643Z,101123.53
2022-10-19T19:24:07.672Z,101112.47
2022-10-19T19:26:48.937Z,101106.97
2022-10-19T19:29:34.435Z,101108.50
2022-10-19T19:32:25.181Z,101149.34
2022-10-19T19:35:09.653Z,101150.94
2022-10-19T19:37:41.341Z,101171.09
2022-10-19T19:40:09.243Z,101193.25
2022-10-19T19:42:36.169Z,101185.16
2022-10-19T19:45:12.712Z,101174.06
2022-10-19T19:47:39.530Z,101158.84
2022-10-19T19:50:38.029Z,101165.25
2022-10-19T19:53:05.139Z,101164.78
2022-10-19T19:55:38.174Z,101152.84
2022-10-19T19:58:10.311Z,101156.41
2022-10-19T20:00:44.954Z,101157.78
2022-10-19T20:05:52.674Z,101180.13
2022-10-19T20:08:19.507Z,101193.16
2022-10-19T20:10:46.272Z,101200.88
2022-10-19T20:13:12.997Z,101176.16
2022-10-19T20:15:41.319Z,101162.84
2022-10-19T20:18:15.916Z,101142.25
2022-10-19T20:20:51.951Z,101145.50
2022-10-19T20:23:29.059Z,101212.44
2022-10-19T20:28:56.933Z,101223.81
2022-10-19T20:33:59.542Z,101171.44
2022-10-19T20:36:31.932Z,101146.03
2022-10-19T20:39:04.749Z,101167.75
2022-10-19T20:41:38.685Z,101162.41
2022-10-19T20:44:17.056Z,101201.44
2022-10-19T20:47:15.824Z,101189.63
2022-10-19T20:49:59.523Z,101194.44
2022-10-19T20:52:37.742Z,101253.66
2022-10-19T20:55:23.093Z,101154.13
2022-10-19T20:57:49.786Z,101205.41
2022-10-19T21:00:17.963Z,101233.81
2022-10-19T21:03:01.826Z,101243.09
2022-10-19T21:05:45.043Z,101193.59
2022-10-19T21:08:11.721Z,101192.09
2022-10-19T21:10:38.485Z,101229.53
2022-10-19T21:13:05.251Z,101192.88
2022-10-19T21:15:32.043Z,101234.56
2022-10-19T21:18:00.115Z,101251.34
2022-10-19T21:20:27.597Z,101253.56
2022-10-19T21:22:54.298Z,101215.22
2022-10-19T21:25:20.992Z,101247.25
2022-10-19T21:27:47.625Z,101231.75
2022-10-19T21:30:34.132Z,101246.59
2022-10-19T21:33:05.690Z,101234.91
2022-10-19T21:35:57.817Z,101263.50
2022-10-19T21:49:09.534Z,101238.53
2022-10-19T21:51:47.922Z,101217.09
2022-10-19T21:54:16.674Z,101205.81
2022-10-19T21:56:43.981Z,101257.56
2022-10-19T21:59:15.397Z,101244.03
2022-10-19T22:01:42.583Z,101279.38
2022-10-19T22:04:15.614Z,101210.47
2022-10-19T22:06:46.499Z,101265.53
2022-10-19T22:09:23.900Z,101201.50
2022-10-19T22:11:53.465Z,101200.91
2022-10-19T22:14:20.263Z,101211.66
2022-10-19T22:16:47.046Z,101202.63
2022-10-19T22:19:15.194Z,101183.84
2022-10-19T22:21:45.566Z,101213.63
2022-10-19T22:24:14.325Z,101214.53
2022-10-19T22:26:44.276Z,101216.72
2022-10-19T22:29:11.501Z,101254.09
2022-10-19T22:31:39.186Z,101218.03
2022-10-19T22:34:08.003Z,101228.66
2022-10-19T22:36:38.249Z,101259.44
2022-10-19T22:39:05.940Z,101201.44
2022-10-19T22:41:33.026Z,101215.28
2022-10-19T22:43:59.943Z,101274.84
2022-10-19T22:46:26.690Z,101254.66
2022-10-19T22:48:53.373Z,101231.16
2022-10-19T22:51:20.130Z,101257.84
2022-10-19T22:53:50.260Z,101261.09
2022-10-19T22:56:17.131Z,101220.84
2022-10-19T22:58:45.719Z,101272.44
2022-10-19T23:01:14.605Z,101259.84
2022-10-19T23:03:41.892Z,101268.19
2022-10-19T23:06:09.945Z,101260.81
2022-10-19T23:08:37.145Z,101247.75
2022-10-19T23:11:05.594Z,101291.84
2022-10-19T23:13:32.660Z,101303.91
2022-10-19T23:15:59.364Z,101278.50
2022-10-19T23:18:27.446Z,101280.59
2022-10-19T23:20:55.732Z,101298.97
2022-10-19T23:23:25.653Z,101301.31
2022-10-19T23:26:04.525Z,101279.69
2022-10-19T23:28:34.336Z,101278.38
2022-10-19T23:31:04.280Z,101260.91
2022-10-19T23:33:31.791Z,101299.53
2022-10-19T23:36:07.102Z,101261.25
2022-10-19T23:38:34.334Z,101248.16
2022-10-19T23:41:01.470Z,101268.97
2022-10-19T23:43:28.422Z,101284.13
2022-10-19T23:45:56.931Z,101253.56
2022-10-19T23:48:24.071Z,101285.69
2022-10-19T23:50:57.740Z,101306.72
2022-10-19T23:53:24.723Z,101291.81
2022-10-19T23:55:51.552Z,101310.81
2022-10-19T23:58:18.199Z,101269.28
